sensor_id;sensor_type;location;lat;lon;timestamp;pressure;altitude;pressure_sealevel;temperature;humidity
71107;BME280;58763;47.982;11.516;2024-03-29T00:01:50;92891.81;;;3.55;81.37
71107;BME280;58763;47.982;11.516;2024-03-29T00:04:15;92891.25;;;3.58;81.01
71107;BME280;58763;47.982;11.516;2024-03-29T00:06:41;92893.41;;;3.56;80.64
71107;BME280;58763;47.982;11.516;2024-03-29T00:09:07;92893.09;;;3.62;80.17
71107;BME280;58763;47.982;11.516;2024-03-29T00:11:33;92890.69;;;3.71;80.08
71107;BME280;58763;47.982;11.516;2024-03-29T00:13:58;92886.41;;;3.65;79.95
71107;BME280;58763;47.982;11.516;2024-03-29T00:16:24;92883.50;;;3.61;79.97
71107;BME280;58763;47.982;11.516;2024-03-29T00:18:52;92878.66;;;3.68;79.84
71107;BME280;58763;47.982;11.516;2024-03-29T00:21:18;92869.50;;;3.79;79.39
71107;BME280;58763;47.982;11.516;2024-03-29T00:23:44;92874.53;;;3.86;79.05
71107;BME280;58763;47.982;11.516;2024-03-29T00:26:11;92869.97;;;3.96;78.59
71107;BME280;58763;47.982;11.516;2024-03-29T00:28:37;92859.78;;;3.98;78.18
71107;BME280;58763;47.982;11.516;2024-03-29T00:31:03;92848.50;;;4.01;77.73
71107;BME280;58763;47.982;11.516;2024-03-29T00:33:30;92839.47;;;3.92;77.83
71107;BME280;58763;47.982;11.516;2024-03-29T00:35:56;92839.56;;;3.82;77.73
71107;BME280;58763;47.982;11.516;2024-03-29T00:38:22;92848.41;;;3.78;78.15
71107;BME280;58763;47.982;11.516;2024-03-29T00:40:47;92840.94;;;3.75;78.68
71107;BME280;58763;47.982;11.516;2024-03-29T00:43:13;92832.59;;;3.81;78.05
71107;BME280;58763;47.982;11.516;2024-03-29T00:45:40;92833.44;;;3.77;77.87
71107;BME280;58763;47.982;11.516;2024-03-29T00:48:06;92833.13;;;3.83;77.83
71107;BME280;58763;47.982;11.516;2024-03-29T00:50:31;92834.19;;;3.87;77.65
71107;BME280;58763;47.982;11.516;2024-03-29T00:52:57;92845.13;;;3.91;77.18
71107;BME280;58763;47.982;11.516;2024-03-29T00:55:23;92845.81;;;4.01;76.61
71107;BME280;58763;47.982;11.516;2024-03-29T00:57:48;92830.13;;;3.90;76.44
71107;BME280;58763;47.982;11.516;2024-03-29T01:00:16;92829.03;;;3.96;76.50
71107;BME280;58763;47.982;11.516;2024-03-29T01:02:42;92825.81;;;3.99;76.28
71107;BME280;58763;47.982;11.516;2024-03-29T01:05:08;92819.41;;;3.95;76.32
71107;BME280;58763;47.982;11.516;2024-03-29T01:07:34;92809.78;;;3.99;76.17
71107;BME280;58763;47.982;11.516;2024-03-29T01:10:00;92804.44;;;3.94;76.29
71107;BME280;58763;47.982;11.516;2024-03-29T01:12:26;92805.78;;;3.96;76.09
71107;BME280;58763;47.982;11.516;2024-03-29T01:14:51;92797.56;;;3.83;76.09
71107;BME280;58763;47.982;11.516;2024-03-29T01:17:17;92786.44;;;3.71;76.57
71107;BME280;58763;47.982;11.516;2024-03-29T01:19:43;92794.97;;;3.73;76.86
71107;BME280;58763;47.982;11.516;2024-03-29T01:22:09;92785.59;;;3.75;76.70
71107;BME280;58763;47.982;11.516;2024-03-29T01:24:34;92784.50;;;3.76;76.42
71107;BME280;58763;47.982;11.516;2024-03-29T01:27:00;92772.13;;;3.85;75.91
71107;BME280;58763;47.982;11.516;2024-03-29T01:29:26;92758.47;;;3.92;75.78
71107;BME280;58763;47.982;11.516;2024-03-29T01:31:52;92750.47;;;3.92;76.12
71107;BME280;58763;47.982;11.516;2024-03-29T01:34:17;92737.63;;;3.89;76.13
71107;BME280;58763;47.982;11.516;2024-03-29T01:36:43;92731.81;;;3.82;76.59
71107;BME280;58763;47.982;11.516;2024-03-29T01:39:09;92730.81;;;3.73;76.76
71107;BME280;58763;47.982;11.516;2024-03-29T01:41:39;92722.78;;;3.73;77.09
71107;BME280;58763;47.982;11.516;2024-03-29T01:44:05;92715.56;;;3.73;76.89
71107;BME280;58763;47.982;11.516;2024-03-29T01:46:31;92719.63;;;3.66;77.61
71107;BME280;58763;47.982;11.516;2024-03-29T01:49:01;92714.03;;;3.62;77.48
71107;BME280;58763;47.982;11.516;2024-03-29T01:51:27;92705.44;;;3.70;77.19
71107;BME280;58763;47.982;11.516;2024-03-29T01:53:54;92704.19;;;3.58;77.56
71107;BME280;58763;47.982;11.516;2024-03-29T01:56:22;92722.16;;;3.52;77.76
71107;BME280;58763;47.982;11.516;2024-03-29T01:59:04;92712.00;;;3.49;78.07
71107;BME280;58763;47.982;11.516;2024-03-29T02:01:30;92711.50;;;3.42;78.33
71107;BME280;58763;47.982;11.516;2024-03-29T02:03:56;92714.66;;;3.49;78.00
71107;BME280;58763;47.982;11.516;2024-03-29T02:06:23;92716.03;;;3.46;78.34
71107;BME280;58763;47.982;11.516;2024-03-29T02:08:50;92728.81;;;3.55;77.77
71107;BME280;58763;47.982;11.516;2024-03-29T02:11:17;92714.13;;;3.52;77.55
71107;BME280;58763;47.982;11.516;2024-03-29T02:13:44;92715.44;;;3.55;77.63
71107;BME280;58763;47.982;11.516;2024-03-29T02:16:10;92706.84;;;3.58;77.38
71107;BME280;58763;47.982;11.516;2024-03-29T02:18:36;92706.03;;;3.57;77.26
71107;BME280;58763;47.982;11.516;2024-03-29T02:21:01;92706.84;;;3.58;77.35
71107;BME280;58763;47.982;11.516;2024-03-29T02:23:29;92716.72;;;3.62;76.59
71107;BME280;58763;47.982;11.516;2024-03-29T02:25:55;92718.34;;;3.58;76.73
71107;BME280;58763;47.982;11.516;2024-03-29T02:28:24;92722.88;;;3.58;76.84
71107;BME280;58763;47.982;11.516;2024-03-29T02:30:50;92711.41;;;3.57;76.92
71107;BME280;58763;47.982;11.516;2024-03-29T02:33:16;92706.84;;;3.58;76.99
71107;BME280;58763;47.982;11.516;2024-03-29T02:35:41;92708.47;;;3.59;77.08
71107;BME280;58763;47.982;11.516;2024-03-29T02:38:07;92708.44;;;3.64;76.66
71107;BME280;58763;47.982;11.516;2024-03-29T02:40:32;92706.50;;;3.69;76.44
71107;BME280;58763;47.982;11.516;2024-03-29T02:42:58;92696.59;;;3.70;76.12
71107;BME280;58763;47.982;11.516;2024-03-29T02:45:25;92701.81;;;3.51;77.28
71107;BME280;58763;47.982;11.516;2024-03-29T02:47:50;92708.19;;;3.55;76.93
71107;BME280;58763;47.982;11.516;2024-03-29T02:50:16;92698.97;;;3.42;77.39
71107;BME280;58763;47.982;11.516;2024-03-29T02:52:42;92705.00;;;3.19;78.37
71107;BME280;58763;47.982;11.516;2024-03-29T02:55:09;92709.00;;;3.17;78.24
71107;BME280;58763;47.982;11.516;2024-03-29T02:57:38;92706.03;;;3.18;78.54
71107;BME280;58763;47.982;11.516;2024-03-29T03:00:05;92699.69;;;3.09;79.37
71107;BME280;58763;47.982;11.516;2024-03-29T03:02:31;92691.69;;;3.09;79.25
71107;BME280;58763;47.982;11.516;2024-03-29T03:04:56;92698.38;;;3.02;79.65
71107;BME280;58763;47.982;11.516;2024-03-29T03:07:22;92698.97;;;2.99;80.39
71107;BME280;58763;47.982;11.516;2024-03-29T03:10:06;92702.34;;;3.14;79.58
71107;BME280;58763;47.982;11.516;2024-03-29T03:12:51;92695.38;;;3.13;79.42
71107;BME280;58763;47.982;11.516;2024-03-29T03:15:17;92690.66;;;3.05;79.72
71107;BME280;58763;47.982;11.516;2024-03-29T03:17:42;92700.50;;;3.10;80.01
71107;BME280;58763;47.982;11.516;2024-03-29T03:20:09;92695.19;;;3.00;80.32
71107;BME280;58763;47.982;11.516;2024-03-29T03:22:35;92701.84;;;3.07;80.29
71107;BME280;58763;47.982;11.516;2024-03-29T03:25:01;92690.81;;;3.19;79.69
71107;BME280;58763;47.982;11.516;2024-03-29T03:27:27;92689.50;;;3.16;79.54
71107;BME280;58763;47.982;11.516;2024-03-29T03:29:52;92695.06;;;3.20;79.47
71107;BME280;58763;47.982;11.516;2024-03-29T03:32:18;92689.22;;;3.18;79.28
71107;BME280;58763;47.982;11.516;2024-03-29T03:34:43;92688.44;;;3.17;79.61
71107;BME280;58763;47.982;11.516;2024-03-29T03:37:09;92682.78;;;3.24;79.34
71107;BME280;58763;47.982;11.516;2024-03-29T03:39:35;92685.16;;;3.25;79.31
71107;BME280;58763;47.982;11.516;2024-03-29T03:42:00;92675.00;;;3.27;79.09
71107;BME280;58763;47.982;11.516;2024-03-29T03:44:26;92663.09;;;3.15;79.73
71107;BME280;58763;47.982;11.516;2024-03-29T03:46:55;92651.81;;;3.18;79.86
71107;BME280;58763;47.982;11.516;2024-03-29T03:49:20;92645.41;;;3.19;79.84
71107;BME280;58763;47.982;11.516;2024-03-29T03:51:46;92651.25;;;3.26;79.60
71107;BME280;58763;47.982;11.516;2024-03-29T03:54:12;92655.78;;;3.25;79.63
71107;BME280;58763;47.982;11.516;2024-03-29T03:56:37;92657.09;;;3.28;79.56
71107;BME280;58763;47.982;11.516;2024-03-29T03:59:03;92653.59;;;3.32;79.33
71107;BME280;58763;47.982;11.516;2024-03-29T04:01:29;92660.97;;;3.45;78.68
71107;BME280;58763;47.982;11.516;2024-03-29T04:03:54;92665.50;;;3.50;78.13
71107;BME280;58763;47.982;11.516;2024-03-29T04:06:20;92666.03;;;3.52;78.17
71107;BME280;58763;47.982;11.516;2024-03-29T04:08:46;92671.84;;;3.59;78.08
71107;BME280;58763;47.982;11.516;2024-03-29T04:11:12;92681.47;;;3.55;77.97
71107;BME280;58763;47.982;11.516;2024-03-29T04:13:37;92685.41;;;3.68;77.65
71107;BME280;58763;47.982;11.516;2024-03-29T04:16:05;92669.59;;;3.71;77.49
71107;BME280;58763;47.982;11.516;2024-03-29T04:18:32;92670.16;;;3.68;77.34
71107;BME280;58763;47.982;11.516;2024-03-29T04:20:59;92659.94;;;3.75;77.26
71107;BME280;58763;47.982;11.516;2024-03-29T04:23:26;92655.94;;;3.78;77.12
71107;BME280;58763;47.982;11.516;2024-03-29T04:25:58;92643.25;;;3.88;76.54
71107;BME280;58763;47.982;11.516;2024-03-29T04:28:25;92649.16;;;3.85;76.81
71107;BME280;58763;47.982;11.516;2024-03-29T04:30:58;92639.81;;;3.83;77.03
71107;BME280;58763;47.982;11.516;2024-03-29T04:33:24;92634.53;;;3.78;77.21
71107;BME280;58763;47.982;11.516;2024-03-29T04:35:55;92637.22;;;3.78;77.06
71107;BME280;58763;47.982;11.516;2024-03-29T04:38:21;92634.75;;;3.81;77.29
71107;BME280;58763;47.982;11.516;2024-03-29T04:40:48;92621.72;;;3.75;77.62
71107;BME280;58763;47.982;11.516;2024-03-29T04:43:14;92621.63;;;3.85;77.17
71107;BME280;58763;47.982;11.516;2024-03-29T04:45:39;92620.03;;;3.84;77.32
71107;BME280;58763;47.982;11.516;2024-03-29T04:48:05;92623.25;;;3.81;77.41
71107;BME280;58763;47.982;11.516;2024-03-29T04:50:31;92633.19;;;3.80;77.26
71107;BME280;58763;47.982;11.516;2024-03-29T04:52:56;92644.44;;;3.77;77.46
71107;BME280;58763;47.982;11.516;2024-03-29T04:55:22;92647.91;;;3.78;77.43
71107;BME280;58763;47.982;11.516;2024-03-29T04:57:48;92641.03;;;3.67;77.50
71107;BME280;58763;47.982;11.516;2024-03-29T05:00:13;92647.13;;;3.72;77.35
71107;BME280;58763;47.982;11.516;2024-03-29T05:02:39;92649.13;;;3.62;77.66
71107;BME280;58763;47.982;11.516;2024-03-29T05:05:04;92645.59;;;3.66;77.56
71107;BME280;58763;47.982;11.516;2024-03-29T05:07:30;92644.75;;;3.71;77.00
71107;BME280;58763;47.982;11.516;2024-03-29T05:09:56;92646.59;;;3.75;76.36
71107;BME280;58763;47.982;11.516;2024-03-29T05:12:21;92640.16;;;3.76;75.68
71107;BME280;58763;47.982;11.516;2024-03-29T05:14:47;92640.06;;;3.86;75.40
71107;BME280;58763;47.982;11.516;2024-03-29T05:17:15;92640.44;;;4.03;74.71
71107;BME280;58763;47.982;11.516;2024-03-29T05:19:43;92647.28;;;4.14;74.27
71107;BME280;58763;47.982;11.516;2024-03-29T05:22:08;92637.50;;;4.29;73.70
71107;BME280;58763;47.982;11.516;2024-03-29T05:24:34;92638.66;;;4.41;73.12
71107;BME280;58763;47.982;11.516;2024-03-29T05:27:00;92625.75;;;4.48;72.55
71107;BME280;58763;47.982;11.516;2024-03-29T05:29:25;92610.66;;;4.57;71.78
71107;BME280;58763;47.982;11.516;2024-03-29T05:31:51;92614.16;;;4.76;70.67
71107;BME280;58763;47.982;11.516;2024-03-29T05:34:16;92606.22;;;4.90;70.23
71107;BME280;58763;47.982;11.516;2024-03-29T05:36:42;92592.66;;;5.00;69.55
71107;BME280;58763;47.982;11.516;2024-03-29T05:39:09;92583.69;;;5.10;69.01
71107;BME280;58763;47.982;11.516;2024-03-29T05:41:35;92577.09;;;5.21;68.75
71107;BME280;58763;47.982;11.516;2024-03-29T05:44:01;92583.59;;;5.33;68.32
71107;BME280;58763;47.982;11.516;2024-03-29T05:46:26;92573.22;;;5.45;67.11
71107;BME280;58763;47.982;11.516;2024-03-29T05:48:52;92587.75;;;5.58;67.27
71107;BME280;58763;47.982;11.516;2024-03-29T05:51:17;92580.63;;;5.67;66.18
71107;BME280;58763;47.982;11.516;2024-03-29T05:53:43;92586.13;;;5.76;66.40
71107;BME280;58763;47.982;11.516;2024-03-29T05:56:09;92595.66;;;5.82;66.44
71107;BME280;58763;47.982;11.516;2024-03-29T05:58:34;92602.34;;;5.84;66.53
71107;BME280;58763;47.982;11.516;2024-03-29T06:01:00;92601.97;;;5.91;65.53
71107;BME280;58763;47.982;11.516;2024-03-29T06:03:27;92579.63;;;5.95;65.65
71107;BME280;58763;47.982;11.516;2024-03-29T06:05:53;92582.44;;;6.04;65.37
71107;BME280;58763;47.982;11.516;2024-03-29T06:08:19;92588.00;;;6.07;65.61
71107;BME280;58763;47.982;11.516;2024-03-29T06:10:46;92593.84;;;6.09;65.71
71107;BME280;58763;47.982;11.516;2024-03-29T06:13:12;92587.91;;;6.12;65.26
71107;BME280;58763;47.982;11.516;2024-03-29T06:16:13;92600.34;;;6.22;65.84
71107;BME280;58763;47.982;11.516;2024-03-29T06:18:58;92599.84;;;6.34;64.68
71107;BME280;58763;47.982;11.516;2024-03-29T06:21:23;92600.03;;;6.37;65.37
71107;BME280;58763;47.982;11.516;2024-03-29T06:23:49;92623.03;;;6.43;66.11
71107;BME280;58763;47.982;11.516;2024-03-29T06:26:14;92627.91;;;6.55;65.58
71107;BME280;58763;47.982;11.516;2024-03-29T06:28:40;92622.53;;;6.55;65.14
71107;BME280;58763;47.982;11.516;2024-03-29T06:31:05;92633.38;;;6.63;65.87
71107;BME280;58763;47.982;11.516;2024-03-29T06:33:31;92625.41;;;6.72;66.07
71107;BME280;58763;47.982;11.516;2024-03-29T06:35:57;92604.13;;;6.75;64.90
71107;BME280;58763;47.982;11.516;2024-03-29T06:38:22;92620.44;;;6.92;65.78
71107;BME280;58763;47.982;11.516;2024-03-29T06:40:48;92606.47;;;7.04;65.27
71107;BME280;58763;47.982;11.516;2024-03-29T06:43:14;92611.00;;;7.17;65.11
71107;BME280;58763;47.982;11.516;2024-03-29T06:45:42;92612.19;;;7.25;62.82
71107;BME280;58763;47.982;11.516;2024-03-29T06:48:09;92602.78;;;7.36;64.06
71107;BME280;58763;47.982;11.516;2024-03-29T06:50:34;92603.66;;;7.45;63.14
71107;BME280;58763;47.982;11.516;2024-03-29T06:53:00;92606.91;;;7.55;63.53
71107;BME280;58763;47.982;11.516;2024-03-29T06:55:26;92623.81;;;7.70;62.64
71107;BME280;58763;47.982;11.516;2024-03-29T06:57:52;92615.34;;;7.85;62.51
71107;BME280;58763;47.982;11.516;2024-03-29T07:00:17;92614.97;;;8.00;63.21
71107;BME280;58763;47.982;11.516;2024-03-29T07:02:43;92621.69;;;8.11;61.73
71107;BME280;58763;47.982;11.516;2024-03-29T07:05:10;92605.19;;;8.26;61.06
71107;BME280;58763;47.982;11.516;2024-03-29T07:07:37;92596.69;;;8.41;60.42
71107;BME280;58763;47.982;11.516;2024-03-29T07:10:03;92587.56;;;8.59;59.40
71107;BME280;58763;47.982;11.516;2024-03-29T07:12:29;92595.25;;;8.74;59.83
71107;BME280;58763;47.982;11.516;2024-03-29T07:14:54;92599.91;;;8.91;59.89
71107;BME280;58763;47.982;11.516;2024-03-29T07:17:21;92591.53;;;9.10;59.74
71107;BME280;58763;47.982;11.516;2024-03-29T07:19:47;92582.16;;;9.24;57.27
71107;BME280;58763;47.982;11.516;2024-03-29T07:22:12;92584.41;;;9.39;59.45
71107;BME280;58763;47.982;11.516;2024-03-29T07:24:38;92585.38;;;9.52;59.88
71107;BME280;58763;47.982;11.516;2024-03-29T07:27:03;92603.31;;;9.65;57.86
71107;BME280;58763;47.982;11.516;2024-03-29T07:29:29;92600.13;;;9.71;58.63
71107;BME280;58763;47.982;11.516;2024-03-29T07:31:56;92602.66;;;9.85;57.56
71107;BME280;58763;47.982;11.516;2024-03-29T07:34:22;92595.97;;;10.00;58.33
71107;BME280;58763;47.982;11.516;2024-03-29T07:36:48;92607.91;;;10.16;55.63
71107;BME280;58763;47.982;11.516;2024-03-29T07:39:13;92625.97;;;10.32;56.80
71107;BME280;58763;47.982;11.516;2024-03-29T07:41:39;92629.88;;;10.61;57.16
71107;BME280;58763;47.982;11.516;2024-03-29T07:44:04;92628.22;;;10.77;56.15
71107;BME280;58763;47.982;11.516;2024-03-29T07:46:36;92640.91;;;10.93;56.26
71107;BME280;58763;47.982;11.516;2024-03-29T07:49:05;92644.97;;;11.08;55.59
71107;BME280;58763;47.982;11.516;2024-03-29T07:51:31;92645.81;;;11.29;54.72
71107;BME280;58763;47.982;11.516;2024-03-29T07:53:57;92647.75;;;11.49;54.07
71107;BME280;58763;47.982;11.516;2024-03-29T07:56:23;92647.66;;;11.66;54.04
71107;BME280;58763;47.982;11.516;2024-03-29T07:58:51;92648.69;;;11.83;53.77
71107;BME280;58763;47.982;11.516;2024-03-29T08:01:19;92655.91;;;11.99;53.52
71107;BME280;58763;47.982;11.516;2024-03-29T08:03:45;92656.06;;;12.15;53.84
71107;BME280;58763;47.982;11.516;2024-03-29T08:06:10;92661.22;;;12.28;52.09
71107;BME280;58763;47.982;11.516;2024-03-29T08:08:36;92655.97;;;12.44;52.12
71107;BME280;58763;47.982;11.516;2024-03-29T08:11:01;92653.75;;;12.58;50.43
71107;BME280;58763;47.982;11.516;2024-03-29T08:13:27;92651.63;;;12.64;50.43
71107;BME280;58763;47.982;11.516;2024-03-29T08:16:00;92651.28;;;12.65;50.06
71107;BME280;58763;47.982;11.516;2024-03-29T08:18:27;92648.16;;;12.75;51.08
71107;BME280;58763;47.982;11.516;2024-03-29T08:20:53;92649.31;;;12.86;50.83
71107;BME280;58763;47.982;11.516;2024-03-29T08:23:23;92630.13;;;13.03;50.36
71107;BME280;58763;47.982;11.516;2024-03-29T08:25:48;92627.69;;;13.23;51.75
71107;BME280;58763;47.982;11.516;2024-03-29T08:28:15;92618.41;;;13.36;51.56
71107;BME280;58763;47.982;11.516;2024-03-29T08:30:40;92616.03;;;13.46;48.31
71107;BME280;58763;47.982;11.516;2024-03-29T08:33:07;92624.50;;;13.57;47.34
71107;BME280;58763;47.982;11.516;2024-03-29T08:35:33;92625.50;;;13.64;47.46
71107;BME280;58763;47.982;11.516;2024-03-29T08:38:00;92627.50;;;13.79;48.36
71107;BME280;58763;47.982;11.516;2024-03-29T08:40:28;92625.78;;;13.99;49.27
71107;BME280;58763;47.982;11.516;2024-03-29T08:42:56;92616.78;;;14.11;47.12
71107;BME280;58763;47.982;11.516;2024-03-29T08:45:22;92621.97;;;14.16;46.71
71107;BME280;58763;47.982;11.516;2024-03-29T08:47:48;92614.84;;;14.23;47.54
71107;BME280;58763;47.982;11.516;2024-03-29T08:50:14;92620.28;;;14.23;46.93
71107;BME280;58763;47.982;11.516;2024-03-29T08:52:39;92613.91;;;14.31;46.12
71107;BME280;58763;47.982;11.516;2024-03-29T08:55:06;92622.69;;;14.40;48.91
71107;BME280;58763;47.982;11.516;2024-03-29T08:57:32;92626.53;;;14.51;45.98
71107;BME280;58763;47.982;11.516;2024-03-29T08:59:58;92631.38;;;14.58;46.02
71107;BME280;58763;47.982;11.516;2024-03-29T09:02:24;92619.78;;;14.61;46.21
71107;BME280;58763;47.982;11.516;2024-03-29T09:04:49;92624.72;;;14.71;48.32
71107;BME280;58763;47.982;11.516;2024-03-29T09:07:15;92616.84;;;14.82;46.35
71107;BME280;58763;47.982;11.516;2024-03-29T09:09:41;92622.00;;;14.87;46.70
71107;BME280;58763;47.982;11.516;2024-03-29T09:12:10;92624.59;;;14.95;46.04
71107;BME280;58763;47.982;11.516;2024-03-29T09:14:36;92629.16;;;15.07;48.03
71107;BME280;58763;47.982;11.516;2024-03-29T09:17:01;92630.28;;;15.06;44.24
71107;BME280;58763;47.982;11.516;2024-03-29T09:19:28;92633.44;;;15.08;45.02
71107;BME280;58763;47.982;11.516;2024-03-29T09:21:55;92616.69;;;15.06;45.13
71107;BME280;58763;47.982;11.516;2024-03-29T09:24:21;92627.56;;;15.06;47.18
71107;BME280;58763;47.982;11.516;2024-03-29T09:26:50;92622.56;;;15.08;44.59
71107;BME280;58763;47.982;11.516;2024-03-29T09:29:16;92626.44;;;15.07;44.95
71107;BME280;58763;47.982;11.516;2024-03-29T09:31:43;92634.34;;;15.12;43.35
71107;BME280;58763;47.982;11.516;2024-03-29T09:34:09;92630.28;;;15.06;43.72
71107;BME280;58763;47.982;11.516;2024-03-29T09:36:34;92625.72;;;15.10;44.47
71107;BME280;58763;47.982;11.516;2024-03-29T09:39:01;92622.47;;;15.04;44.36
71107;BME280;58763;47.982;11.516;2024-03-29T09:41:27;92634.84;;;15.02;46.04
71107;BME280;58763;47.982;11.516;2024-03-29T09:43:55;92631.09;;;15.06;43.57
71107;BME280;58763;47.982;11.516;2024-03-29T09:46:23;92635.22;;;15.16;43.40
71107;BME280;58763;47.982;11.516;2024-03-29T09:48:50;92633.09;;;15.25;43.70
71107;BME280;58763;47.982;11.516;2024-03-29T09:51:17;92637.31;;;15.38;45.37
71107;BME280;58763;47.982;11.516;2024-03-29T09:53:45;92633.28;;;15.48;45.21
71107;BME280;58763;47.982;11.516;2024-03-29T09:56:11;92625.72;;;15.57;44.32
71107;BME280;58763;47.982;11.516;2024-03-29T09:58:38;92624.97;;;15.56;43.22
71107;BME280;58763;47.982;11.516;2024-03-29T10:01:04;92628.81;;;15.55;43.93
71107;BME280;58763;47.982;11.516;2024-03-29T10:03:40;92631.16;;;15.72;44.07
71107;BME280;58763;47.982;11.516;2024-03-29T10:06:07;92630.16;;;15.80;43.68
71107;BME280;58763;47.982;11.516;2024-03-29T10:08:37;92638.00;;;15.82;44.54
71107;BME280;58763;47.982;11.516;2024-03-29T10:11:03;92634.50;;;15.81;43.26
71107;BME280;58763;47.982;11.516;2024-03-29T10:13:29;92629.63;;;15.90;45.11
71107;BME280;58763;47.982;11.516;2024-03-29T10:15:55;92630.91;;;15.97;43.68
71107;BME280;58763;47.982;11.516;2024-03-29T10:18:22;92632.47;;;16.13;44.16
71107;BME280;58763;47.982;11.516;2024-03-29T10:21:05;92622.66;;;16.28;43.35
71107;BME280;58763;47.982;11.516;2024-03-29T10:23:32;92629.25;;;16.46;41.45
71107;BME280;58763;47.982;11.516;2024-03-29T10:25:59;92626.25;;;16.70;42.42
71107;BME280;58763;47.982;11.516;2024-03-29T10:28:31;92624.94;;;16.83;42.43
71107;BME280;58763;47.982;11.516;2024-03-29T10:31:04;92617.94;;;17.05;42.65
71107;BME280;58763;47.982;11.516;2024-03-29T10:33:31;92608.06;;;17.19;41.72
71107;BME280;58763;47.982;11.516;2024-03-29T10:36:02;92609.53;;;17.36;41.09
71107;BME280;58763;47.982;11.516;2024-03-29T10:38:30;92606.38;;;17.57;40.06
71107;BME280;58763;47.982;11.516;2024-03-29T10:40:57;92603.84;;;17.71;38.45
71107;BME280;58763;47.982;11.516;2024-03-29T10:43:23;92596.28;;;17.87;38.18
71107;BME280;58763;47.982;11.516;2024-03-29T10:45:50;92598.94;;;18.10;40.27
71107;BME280;58763;47.982;11.516;2024-03-29T10:48:20;92599.50;;;18.22;38.81
71107;BME280;58763;47.982;11.516;2024-03-29T10:50:48;92595.38;;;18.35;39.08
71107;BME280;58763;47.982;11.516;2024-03-29T10:53:16;92605.91;;;18.33;38.30
71107;BME280;58763;47.982;11.516;2024-03-29T10:55:42;92608.56;;;18.26;38.81
71107;BME280;58763;47.982;11.516;2024-03-29T10:58:12;92596.00;;;18.25;37.78
71107;BME280;58763;47.982;11.516;2024-03-29T11:00:46;92598.16;;;18.09;36.58
71107;BME280;58763;47.982;11.516;2024-03-29T11:03:15;92595.72;;;18.04;37.29
71107;BME280;58763;47.982;11.516;2024-03-29T11:05:50;92585.91;;;18.00;38.57
71107;BME280;58763;47.982;11.516;2024-03-29T11:08:20;92583.59;;;18.02;39.74
71107;BME280;58763;47.982;11.516;2024-03-29T11:10:47;92585.53;;;18.01;38.59
71107;BME280;58763;47.982;11.516;2024-03-29T11:13:19;92579.38;;;18.08;38.20
71107;BME280;58763;47.982;11.516;2024-03-29T11:15:49;92579.94;;;18.20;39.25
71107;BME280;58763;47.982;11.516;2024-03-29T11:18:17;92580.56;;;18.40;40.23
71107;BME280;58763;47.982;11.516;2024-03-29T11:20:48;92583.81;;;18.45;39.13
71107;BME280;58763;47.982;11.516;2024-03-29T11:23:19;92578.00;;;18.50;38.17
71107;BME280;58763;47.982;11.516;2024-03-29T11:25:49;92581.06;;;18.45;39.93
71107;BME280;58763;47.982;11.516;2024-03-29T11:28:23;92580.84;;;18.61;40.51
71107;BME280;58763;47.982;11.516;2024-03-29T11:30:49;92580.28;;;18.78;39.45
71107;BME280;58763;47.982;11.516;2024-03-29T11:35:51;92570.75;;;19.02;40.03
71107;BME280;58763;47.982;11.516;2024-03-29T11:38:18;92574.03;;;19.18;38.18
71107;BME280;58763;47.982;11.516;2024-03-29T11:40:54;92572.09;;;19.22;38.21
71107;BME280;58763;47.982;11.516;2024-03-29T11:43:20;92567.47;;;19.29;35.36
71107;BME280;58763;47.982;11.516;2024-03-29T11:45:48;92565.31;;;19.49;39.52
71107;BME280;58763;47.982;11.516;2024-03-29T11:48:21;92565.88;;;19.72;37.41
71107;BME280;58763;47.982;11.516;2024-03-29T11:50:48;92562.47;;;19.89;36.05
71107;BME280;58763;47.982;11.516;2024-03-29T11:53:14;92569.66;;;20.08;36.80
71107;BME280;58763;47.982;11.516;2024-03-29T11:55:39;92566.16;;;20.15;35.74
71107;BME280;58763;47.982;11.516;2024-03-29T11:58:05;92565.84;;;20.27;36.27
71107;BME280;58763;47.982;11.516;2024-03-29T12:00:30;92567.09;;;20.36;34.90
71107;BME280;58763;47.982;11.516;2024-03-29T12:02:57;92552.69;;;20.60;35.50
71107;BME280;58763;47.982;11.516;2024-03-29T12:05:23;92551.97;;;20.85;34.22
71107;BME280;58763;47.982;11.516;2024-03-29T12:07:49;92553.50;;;20.72;33.00
71107;BME280;58763;47.982;11.516;2024-03-29T12:10:15;92538.94;;;20.53;33.46
71107;BME280;58763;47.982;11.516;2024-03-29T12:12:41;92546.03;;;20.65;36.09
71107;BME280;58763;47.982;11.516;2024-03-29T12:15:08;92546.47;;;20.81;34.24
71107;BME280;58763;47.982;11.516;2024-03-29T12:17:34;92553.56;;;20.96;34.48
71107;BME280;58763;47.982;11.516;2024-03-29T12:20:00;92540.63;;;21.04;34.81
71107;BME280;58763;47.982;11.516;2024-03-29T12:22:36;92537.16;;;21.14;34.72
71107;BME280;58763;47.982;11.516;2024-03-29T12:25:02;92533.13;;;20.94;36.19
71107;BME280;58763;47.982;11.516;2024-03-29T12:27:28;92530.06;;;21.06;32.69
71107;BME280;58763;47.982;11.516;2024-03-29T12:29:55;92531.63;;;21.17;33.62
71107;BME280;58763;47.982;11.516;2024-03-29T12:32:20;92523.00;;;21.22;31.30
71107;BME280;58763;47.982;11.516;2024-03-29T12:34:46;92530.09;;;21.38;33.70
71107;BME280;58763;47.982;11.516;2024-03-29T12:37:12;92523.41;;;21.53;34.29
71107;BME280;58763;47.982;11.516;2024-03-29T12:39:41;92525.38;;;21.49;30.84
71107;BME280;58763;47.982;11.516;2024-03-29T12:42:10;92519.50;;;21.61;32.33
71107;BME280;58763;47.982;11.516;2024-03-29T12:44:36;92512.41;;;21.70;31.25
71107;BME280;58763;47.982;11.516;2024-03-29T12:47:02;92504.13;;;21.74;31.08
71107;BME280;58763;47.982;11.516;2024-03-29T12:49:27;92510.81;;;21.73;31.88
71107;BME280;58763;47.982;11.516;2024-03-29T12:51:55;92508.06;;;21.73;32.00
71107;BME280;58763;47.982;11.516;2024-03-29T12:54:21;92499.81;;;21.73;32.83
71107;BME280;58763;47.982;11.516;2024-03-29T12:56:47;92499.44;;;21.67;32.16